Time;durP1;ratioP1;P1;durP2;ratioP2;P2;SDS_P1;SDS_P2;PMS_P1;PMS_P2;Temp;Humidity;BMP_temperature;BMP_pressure;BME280_temperature;BME280_humidity;BME280_pressure;Samples;Min_cycle;Max_cycle;Signal;HPM_P1;HPM_P2
2023/01/14 00:01:24;;;;;;;10.88;8.35;;;;;;;15.45;54.64;100554.84;5113252;28;20404;-58
2023/01/14 00:03:53;;;;;;;12.65;9.00;;;;;;;15.44;54.18;100563.88;5113040;28;20123;-57
2023/01/14 00:06:23;;;;;;;10.70;7.45;;;;;;;15.41;54.45;100561.41;5112911;28;20051;-57
2023/01/14 00:08:54;;;;;;;12.40;8.93;;;;;;;15.39;54.21;100560.66;5112881;28;20330;-58
2023/01/14 00:11:45;;;;;;;10.68;8.10;;;;;;;15.37;54.54;100573.38;5112812;28;20475;-58
2023/01/14 00:14:15;;;;;;;10.98;7.93;;;;;;;15.33;54.56;100582.63;5112586;28;20127;-58
2023/01/14 00:16:43;;;;;;;13.88;8.77;;;;;;;15.30;54.42;100592.75;5112585;28;20064;-59
2023/01/14 00:19:12;;;;;;;12.02;8.40;;;;;;;15.28;54.59;100606.31;5112719;28;20104;-57
2023/01/14 00:21:41;;;;;;;11.35;8.40;;;;;;;15.25;54.66;100601.16;5112704;28;20496;-59
2023/01/14 00:24:10;;;;;;;12.43;9.75;;;;;;;15.23;54.72;100597.72;5112843;28;20067;-58
2023/01/14 00:26:39;;;;;;;11.70;8.85;;;;;;;15.21;54.63;100590.75;5113575;28;20047;-59
2023/01/14 00:29:09;;;;;;;12.82;8.88;;;;;;;15.18;54.26;100591.84;5112424;28;20062;-59
2023/01/14 00:31:39;;;;;;;12.50;8.43;;;;;;;15.16;54.48;100588.41;5112549;28;20044;-59
2023/01/14 00:34:07;;;;;;;12.55;9.00;;;;;;;15.13;54.27;100589.47;5112450;28;20043;-59
2023/01/14 00:36:35;;;;;;;11.75;8.30;;;;;;;15.11;54.45;100587.88;5094098;28;20048;-59
2023/01/14 00:39:04;;;;;;;12.98;9.20;;;;;;;15.10;54.45;100588.84;5112446;28;20071;-59
2023/01/14 00:41:32;;;;;;;12.40;8.13;;;;;;;15.07;54.38;100589.09;5093784;28;20048;-59
2023/01/14 00:44:01;;;;;;;13.35;9.57;;;;;;;15.06;54.43;100595.44;5112520;28;20039;-57
2023/01/14 00:46:31;;;;;;;12.38;9.35;;;;;;;15.03;54.56;100584.88;5112387;28;20043;-58
2023/01/14 00:49:02;;;;;;;13.40;9.38;;;;;;;15.02;54.56;100580.50;5112247;28;20066;-58
2023/01/14 00:51:32;;;;;;;13.85;9.57;;;;;;;15.00;54.39;100585.13;5112386;28;20245;-58
2023/01/14 00:54:01;;;;;;;13.32;9.13;;;;;;;14.97;54.38;100585.34;5112351;28;20054;-58
2023/01/14 00:56:29;;;;;;;11.70;8.40;;;;;;;14.95;54.52;100587.28;5093932;28;20085;-58
2023/01/14 00:58:58;;;;;;;14.95;10.48;;;;;;;14.93;54.50;100590.06;5112241;28;20089;-58
2023/01/14 01:01:26;;;;;;;12.40;8.93;;;;;;;14.91;54.28;100588.47;5112021;28;20040;-59
2023/01/14 01:03:57;;;;;;;12.82;9.52;;;;;;;14.88;54.42;100587.75;5112141;28;20043;-59
2023/01/14 01:06:28;;;;;;;13.68;9.63;;;;;;;14.86;54.45;100581.63;5093864;28;20393;-59
2023/01/14 01:09:03;;;;;;;12.50;9.02;;;;;;;14.83;54.47;100587.19;5112285;28;20054;-58
2023/01/14 01:11:32;;;;;;;13.25;9.43;;;;;;;14.81;54.35;100589.16;5112067;28;20044;-59
2023/01/14 01:14:00;;;;;;;14.35;10.43;;;;;;;14.79;54.18;100583.03;5111987;28;20040;-59
2023/01/14 01:16:28;;;;;;;15.32;11.20;;;;;;;14.77;54.33;100579.59;5112052;28;20093;-59
2023/01/14 01:18:57;;;;;;;14.18;9.90;;;;;;;14.75;54.22;100576.16;5112070;28;20404;-59
2023/01/14 01:21:27;;;;;;;15.98;10.45;;;;;;;14.73;54.45;100583.47;5112030;28;20055;-58
2023/01/14 01:23:56;;;;;;;16.67;10.93;;;;;;;14.70;54.33;100589.06;5111984;28;20054;-58
2023/01/14 01:26:26;;;;;;;14.80;10.98;;;;;;;14.68;54.12;100591.00;5111806;28;20047;-58
2023/01/14 01:28:55;;;;;;;14.85;10.80;;;;;;;14.65;54.35;100588.53;5111783;28;20438;-58
2023/01/14 01:31:24;;;;;;;14.82;10.20;;;;;;;14.63;54.46;100590.47;5111955;28;20474;-58
2023/01/14 01:33:52;;;;;;;15.15;10.60;;;;;;;14.65;54.46;100601.09;5111767;28;20043;-58
2023/01/14 01:36:23;;;;;;;15.13;11.10;;;;;;;14.61;54.50;100581.69;5111854;28;20043;-58
2023/01/14 01:38:53;;;;;;;16.70;11.30;;;;;;;14.59;54.54;100578.25;5093572;28;20047;-58
2023/01/14 01:41:23;;;;;;;15.85;11.00;;;;;;;14.59;54.57;100580.94;5111936;28;20051;-58
2023/01/14 01:44:02;;;;;;;17.30;10.90;;;;;;;14.55;54.37;100576.72;5093510;28;20511;-58
2023/01/14 01:46:32;;;;;;;15.30;11.10;;;;;;;14.53;54.44;100584.03;5111962;28;20123;-58
2023/01/14 01:49:06;;;;;;;17.65;12.15;;;;;;;14.52;54.45;100579.66;5111689;28;20076;-59
2023/01/14 01:51:41;;;;;;;14.65;10.63;;;;;;;14.49;54.43;100591.47;5111625;28;20043;-59
2023/01/14 01:54:12;;;;;;;13.98;10.32;;;;;;;14.48;54.53;100587.06;5114372;28;20629;-59
2023/01/14 01:56:45;;;;;;;16.05;11.38;;;;;;;14.48;54.35;100591.59;5097064;28;20047;-58
2023/01/14 01:59:18;;;;;;;16.33;10.85;;;;;;;14.46;54.36;100585.44;5115406;28;20046;-58
2023/01/14 02:01:48;;;;;;;16.05;11.43;;;;;;;14.42;54.21;100591.97;5115350;28;20048;-59
2023/01/14 02:04:19;;;;;;;14.75;10.27;;;;;;;14.41;54.57;100596.47;5115357;28;20039;-58
2023/01/14 02:06:48;;;;;;;17.30;10.95;;;;;;;14.40;54.44;100601.97;5115213;28;20489;-59
2023/01/14 02:09:18;;;;;;;15.95;11.10;;;;;;;14.39;54.40;100605.63;5115214;28;20462;-59
2023/01/14 02:11:59;;;;;;;16.55;10.98;;;;;;;14.38;54.37;100601.19;5115224;28;20055;-58
2023/01/14 02:14:43;;;;;;;15.02;10.80;;;;;;;14.36;54.50;100600.44;5115010;28;20514;-59
2023/01/14 02:17:20;;;;;;;14.60;10.60;;;;;;;14.33;54.47;100597.00;5115017;28;20065;-59
2023/01/14 02:20:22;;;;;;;17.02;10.77;;;;;;;14.32;54.51;100603.34;5115026;28;20075;-59
2023/01/14 02:23:43;;;;;;;17.02;11.70;;;;;;;14.29;54.75;100603.56;5106396;28;20467;-59
2023/01/14 02:26:47;;;;;;;19.17;12.70;;;;;;;14.27;54.38;100597.44;5032017;28;20107;-58
2023/01/14 02:29:51;;;;;;;18.52;11.05;;;;;;;14.26;54.55;100601.09;5114757;28;20047;-60
2023/01/14 02:32:28;;;;;;;17.75;12.30;;;;;;;14.23;54.41;100598.63;5112413;28;20052;-58
2023/01/14 02:35:03;;;;;;;15.18;10.48;;;;;;;14.23;54.47;100612.03;5096388;28;20050;-59
2023/01/14 02:37:40;;;;;;;17.15;12.43;;;;;;;14.21;54.52;100597.88;5114612;28;20077;-59
2023/01/14 02:40:15;;;;;;;17.65;11.57;;;;;;;14.19;54.63;100605.19;5114663;28;20040;-58
2023/01/14 02:45:42;;;;;;;17.55;12.27;;;;;;;14.17;54.65;100609.78;5114635;28;20043;-59
2023/01/14 02:48:13;;;;;;;17.83;11.90;;;;;;;14.15;54.54;100609.03;5114455;28;20070;-59
2023/01/14 02:50:42;;;;;;;16.63;11.50;;;;;;;14.14;54.71;100610.00;5114606;28;20047;-58
2023/01/14 02:53:12;;;;;;;17.95;11.93;;;;;;;14.13;54.59;100621.69;5114389;28;20048;-59
2023/01/14 02:55:40;;;;;;;18.65;12.13;;;;;;;14.11;54.83;100618.28;5114396;28;20051;-59
2023/01/14 02:58:27;;;;;;;16.05;11.05;;;;;;;14.10;54.88;100616.56;5114302;28;20123;-59
2023/01/14 03:01:14;;;;;;;15.73;10.52;;;;;;;14.09;54.83;100617.53;5114263;28;20051;-59
2023/01/14 03:03:58;;;;;;;18.08;11.43;;;;;;;14.07;54.88;100624.78;5113962;28;20047;-59
2023/01/14 03:06:35;;;;;;;16.45;10.80;;;;;;;14.06;54.75;100622.22;5114174;28;20039;-58
2023/01/14 03:09:09;;;;;;;17.05;12.02;;;;;;;14.04;54.93;100622.31;5114224;28;20442;-58
2023/01/14 03:11:44;;;;;;;15.88;11.07;;;;;;;14.04;54.90;100627.69;5114004;28;20047;-60
2023/01/14 03:14:19;;;;;;;17.17;11.35;;;;;;;14.03;54.87;100631.34;5113876;28;20040;-58
2023/01/14 03:16:54;;;;;;;15.88;10.93;;;;;;;14.01;54.89;100634.13;5113864;28;20039;-58
2023/01/14 03:19:27;;;;;;;17.85;11.35;;;;;;;14.01;54.83;100638.63;5113791;28;20051;-58
2023/01/14 03:21:57;;;;;;;16.87;12.27;;;;;;;13.99;54.84;100641.44;5113858;28;20051;-58
2023/01/14 03:24:31;;;;;;;18.52;12.32;;;;;;;13.98;54.78;100633.47;5113783;28;20929;-58
2023/01/14 03:27:04;;;;;;;17.20;12.13;;;;;;;13.96;54.95;100624.66;5113686;28;20096;-58
2023/01/14 03:29:37;;;;;;;17.17;12.10;;;;;;;13.95;54.76;100628.31;5113728;28;20493;-58
2023/01/14 03:32:10;;;;;;;18.77;12.10;;;;;;;13.95;54.92;100642.59;5113631;28;20063;-58
2023/01/14 03:34:44;;;;;;;17.92;11.30;;;;;;;13.93;54.91;100641.84;5113549;28;20138;-58
2023/01/14 03:37:15;;;;;;;17.88;11.88;;;;;;;13.93;54.85;100643.66;5113474;28;20504;-58
2023/01/14 03:39:48;;;;;;;19.20;12.27;;;;;;;13.91;54.93;100648.28;5113464;28;20054;-58
2023/01/14 03:42:22;;;;;;;16.10;11.48;;;;;;;13.89;54.83;100639.44;5113344;28;20075;-58
2023/01/14 03:44:58;;;;;;;16.80;11.98;;;;;;;13.88;55.01;100646.63;5113285;28;20047;-58
2023/01/14 03:47:32;;;;;;;19.83;12.35;;;;;;;13.87;54.87;100650.28;5113277;28;20130;-58
2023/01/14 03:50:06;;;;;;;17.20;11.32;;;;;;;13.86;54.98;100651.25;5113430;28;20043;-58
2023/01/14 03:52:44;;;;;;;;;;;;;;;13.86;55.07;100661.97;5113621;28;20044;-58
2023/01/14 03:55:17;;;;;;;18.17;11.07;;;;;;;13.84;54.89;100657.69;5113049;28;19927;-58
2023/01/14 03:57:49;;;;;;;;;;;;;;;13.84;54.97;100657.69;5113717;28;20051;-58
2023/01/14 04:00:22;;;;;;;15.13;10.68;;;;;;;13.83;54.95;100661.34;5113065;28;19972;-58
2023/01/14 04:02:56;;;;;;;17.35;11.43;;;;;;;13.82;55.11;100667.66;5113121;28;20088;-58
2023/01/14 04:05:24;;;;;;;;;;;;;;;13.81;55.01;100674.00;5113317;28;20477;-58
2023/01/14 04:07:53;;;;;;;16.63;11.10;;;;;;;13.80;55.19;100666.88;5112910;28;19985;-58
2023/01/14 04:10:21;;;;;;;18.13;11.52;;;;;;;13.80;55.04;100664.19;5112983;28;20043;-59
2023/01/14 04:15:36;;;;;;;15.68;10.65;;;;;;;13.78;55.18;100663.44;5111969;28;20082;-57
2023/01/14 04:18:05;;;;;;;16.10;11.40;;;;;;;13.77;55.09;100667.09;5112898;28;20150;-59
2023/01/14 04:20:34;;;;;;;15.95;10.82;;;;;;;13.75;55.04;100664.53;5112943;28;20070;-60
2023/01/14 04:23:02;;;;;;;16.70;12.00;;;;;;;13.74;55.31;100666.34;5112811;28;20104;-60
2023/01/14 04:25:30;;;;;;;15.77;10.13;;;;;;;13.74;55.10;100665.50;5112681;28;20064;-58
2023/01/14 04:27:58;;;;;;;16.35;11.68;;;;;;;13.73;55.22;100667.31;5112455;28;20131;-57
2023/01/14 04:30:27;;;;;;;17.10;10.93;;;;;;;13.72;55.41;100670.09;5112389;28;20454;-59
2023/01/14 04:32:55;;;;;;;16.67;11.30;;;;;;;13.71;55.34;100669.25;5112506;28;20104;-59
2023/01/14 04:35:24;;;;;;;14.90;10.80;;;;;;;13.70;55.33;100669.31;5112580;28;20135;-59
2023/01/14 04:37:54;;;;;;;15.25;9.77;;;;;;;13.70;55.50;100670.22;5112419;28;20381;-58
2023/01/14 04:40:24;;;;;;;13.48;9.63;;;;;;;13.72;55.70;100664.75;5112470;28;20404;-60
2023/01/14 04:42:51;;;;;;;13.70;9.50;;;;;;;13.77;56.38;100673.31;5094012;28;20549;-59
2023/01/14 04:45:19;;;;;;;13.10;8.70;;;;;;;13.87;56.59;100668.19;5112216;28;20061;-59
2023/01/14 04:47:50;;;;;;;13.82;9.10;;;;;;;13.99;56.62;100672.72;5112415;28;20131;-59
2023/01/14 04:50:34;;;;;;;13.30;8.93;;;;;;;14.13;56.56;100686.06;5112162;28;20044;-58
2023/01/14 04:53:09;;;;;;;12.48;8.95;;;;;;;14.26;56.37;100686.94;5112398;28;20073;-59
2023/01/14 04:55:40;;;;;;;13.85;8.82;;;;;;;14.42;56.27;100685.91;5112058;28;20044;-57
2023/01/14 04:58:11;;;;;;;14.27;9.05;;;;;;;14.56;56.00;100683.13;5112277;28;20047;-59
2023/01/14 05:00:40;;;;;;;12.20;8.80;;;;;;;14.68;55.86;100692.19;5112147;28;20116;-59
2023/01/14 05:03:10;;;;;;;14.40;8.93;;;;;;;14.80;55.82;100685.94;5112330;28;20043;-59
2023/01/14 05:05:38;;;;;;;13.27;9.07;;;;;;;14.93;55.62;100700.19;5093937;28;20043;-57
2023/01/14 05:08:09;;;;;;;13.45;9.02;;;;;;;15.03;55.60;100686.97;5112025;28;20097;-59
2023/01/14 05:10:37;;;;;;;13.52;8.80;;;;;;;15.16;55.35;100690.50;5112034;28;20047;-59
2023/01/14 05:13:07;;;;;;;12.43;8.65;;;;;;;15.26;54.96;100698.75;5112102;28;20077;-59
2023/01/14 05:15:38;;;;;;;12.60;8.70;;;;;;;15.35;55.07;100695.41;5112171;28;20035;-59
2023/01/14 05:18:08;;;;;;;12.25;8.90;;;;;;;15.46;54.99;100707.09;5112278;28;20457;-59
2023/01/14 05:20:36;;;;;;;12.77;9.00;;;;;;;15.60;54.71;100697.13;5093731;28;20047;-59
2023/01/14 05:23:06;;;;;;;13.38;8.32;;;;;;;15.67;54.55;100696.59;5111999;28;20049;-60
2023/01/14 05:25:36;;;;;;;13.30;8.32;;;;;;;15.81;54.56;100694.72;5111979;28;20139;-59
2023/01/14 05:28:06;;;;;;;11.88;8.27;;;;;;;15.91;54.50;100693.03;5114703;28;20082;-59
2023/01/14 05:30:35;;;;;;;11.88;8.27;;;;;;;15.97;54.36;100700.66;5116058;28;20039;-59
2023/01/14 05:33:03;;;;;;;11.32;7.93;;;;;;;16.09;54.27;100693.47;5115908;28;20128;-59
2023/01/14 05:35:32;;;;;;;12.02;8.05;;;;;;;16.16;54.06;100705.50;5115750;28;20052;-59
2023/01/14 05:38:01;;;;;;;11.93;8.40;;;;;;;16.18;54.15;100699.03;5115935;28;20055;-60
2023/01/14 05:40:29;;;;;;;12.13;8.15;;;;;;;16.20;54.19;100709.66;5116133;28;20047;-59
2023/01/14 05:45:51;;;;;;;12.27;8.35;;;;;;;16.17;54.33;100712.59;5115673;28;20437;-58
2023/01/14 05:48:22;;;;;;;12.18;8.00;;;;;;;16.14;54.17;100713.69;5115625;28;20044;-59
2023/01/14 05:50:50;;;;;;;11.32;7.88;;;;;;;16.12;54.50;100721.03;5115678;28;20088;-59
2023/01/14 05:53:19;;;;;;;11.90;8.07;;;;;;;16.09;54.65;100721.25;5115548;28;20052;-58
2023/01/14 05:55:48;;;;;;;10.95;7.85;;;;;;;16.06;54.52;100715.25;5115373;28;20116;-60
2023/01/14 05:58:18;;;;;;;11.48;8.23;;;;;;;16.01;54.62;100716.44;5115311;28;20131;-59
2023/01/14 06:06:25;;;;;;;11.68;8.02;;;;;;;15.85;54.67;100715.91;5097175;28;20055;-59
2023/01/14 06:08:55;;;;;;;11.30;8.07;;;;;;;15.82;54.85;100721.47;5115242;28;20052;-59
2023/01/14 06:11:24;;;;;;;11.82;8.13;;;;;;;15.78;54.91;100727.22;5115233;28;20043;-60
2023/01/14 06:13:57;;;;;;;11.13;7.75;;;;;;;15.73;54.84;100735.66;5096828;28;20052;-58
2023/01/14 06:16:27;;;;;;;10.60;7.65;;;;;;;15.67;54.84;100728.88;5115016;28;20054;-58
2023/01/14 06:18:56;;;;;;;9.95;7.10;;;;;;;15.64;54.75;100726.41;5115063;28;20481;-59
2023/01/14 06:21:29;;;;;;;12.07;8.27;;;;;;;15.59;55.01;100728.53;5114895;28;20071;-59
2023/01/14 06:23:58;;;;;;;11.73;8.07;;;;;;;15.55;54.99;100731.59;5096680;28;20138;-60
2023/01/14 06:26:27;;;;;;;10.73;7.65;;;;;;;15.51;55.04;100738.13;5114927;28;20116;-59
2023/01/14 06:28:59;;;;;;;11.10;7.60;;;;;;;15.45;55.19;100743.00;5096987;28;20472;-59
2023/01/14 06:31:29;;;;;;;10.55;7.35;;;;;;;15.41;55.11;100746.88;5114779;28;20040;-61
2023/01/14 06:33:58;;;;;;;13.55;8.70;;;;;;;15.39;55.16;100750.66;5114853;28;20050;-57
2023/01/14 06:36:26;;;;;;;11.43;7.55;;;;;;;15.33;55.03;100753.78;5096344;28;20134;-60
2023/01/14 06:38:54;;;;;;;11.07;7.93;;;;;;;15.30;55.08;100738.72;5113870;28;20044;-59
2023/01/14 06:41:23;;;;;;;10.82;7.57;;;;;;;15.26;55.05;100747.13;5114611;28;20062;-59
2023/01/14 06:43:51;;;;;;;11.57;8.00;;;;;;;15.22;55.07;100745.63;5096318;28;20404;-59
2023/01/14 06:46:20;;;;;;;11.00;7.93;;;;;;;15.18;54.97;100748.53;5114346;28;20481;-59
2023/01/14 06:48:49;;;;;;;11.07;7.72;;;;;;;15.15;55.06;100745.19;5114532;28;20100;-59
2023/01/14 06:51:20;;;;;;;11.13;7.95;;;;;;;15.10;54.99;100761.66;5096044;28;20507;-59
2023/01/14 06:53:49;;;;;;;11.95;8.15;;;;;;;15.05;54.97;100757.56;5114502;28;20047;-59
2023/01/14 06:56:18;;;;;;;11.40;7.85;;;;;;;15.03;54.88;100756.81;5114302;28;20071;-59
2023/01/14 06:58:48;;;;;;;11.40;7.63;;;;;;;14.99;55.08;100756.19;5113973;28;20048;-59
2023/01/14 07:01:17;;;;;;;11.73;7.95;;;;;;;14.95;54.96;100754.66;5114208;28;20056;-59
2023/01/14 07:03:47;;;;;;;11.40;8.00;;;;;;;14.94;54.88;100762.84;5114732;28;20047;-57
2023/01/14 07:06:15;;;;;;;12.25;8.18;;;;;;;14.91;54.75;100763.06;5095749;28;20085;-57
2023/01/14 07:08:44;;;;;;;12.07;8.25;;;;;;;14.86;54.87;100761.56;5114062;28;20048;-58
2023/01/14 07:11:13;;;;;;;11.43;7.78;;;;;;;14.83;54.77;100767.13;5114004;28;20050;-58
2023/01/14 07:13:41;;;;;;;12.10;8.63;;;;;;;14.80;54.79;100766.50;5113822;28;20048;-57
2023/01/14 07:16:09;;;;;;;13.10;8.55;;;;;;;14.76;54.88;100771.19;5113969;28;20059;-59
2023/01/14 07:18:37;;;;;;;11.27;7.93;;;;;;;14.75;54.90;100771.31;5113966;28;20044;-60
2023/01/14 07:21:07;;;;;;;12.05;8.15;;;;;;;14.72;55.11;100775.09;5114049;28;20139;-57
2023/01/14 07:23:35;;;;;;;12.60;8.43;;;;;;;14.68;55.04;100768.22;5113806;28;20051;-59
2023/01/14 07:26:03;;;;;;;11.48;8.05;;;;;;;14.67;55.08;100773.66;5113558;28;20051;-59
2023/01/14 07:28:34;;;;;;;12.52;8.25;;;;;;;14.64;55.09;100777.44;5113617;28;20134;-59
2023/01/14 07:31:05;;;;;;;12.30;8.25;;;;;;;14.62;55.02;100784.72;5113628;28;20075;-59
2023/01/14 07:33:34;;;;;;;10.95;7.78;;;;;;;14.58;54.99;100785.94;5113503;28;20061;-59
2023/01/14 07:36:02;;;;;;;11.82;8.00;;;;;;;14.55;55.04;100795.03;5113449;28;20101;-59
2023/01/14 07:38:31;;;;;;;13.38;9.00;;;;;;;14.53;55.04;100799.66;5113195;28;20063;-59
2023/01/14 07:41:00;;;;;;;13.20;9.63;;;;;;;14.51;54.78;100798.91;5113441;28;20115;-59
2023/01/14 07:43:28;;;;;;;13.93;8.90;;;;;;;14.49;54.85;100795.47;5113563;28;20044;-58
2023/01/14 07:45:59;;;;;;;12.23;8.88;;;;;;;14.46;54.86;100803.69;5113527;28;20404;-59
2023/01/14 07:48:27;;;;;;;12.25;8.18;;;;;;;14.44;54.84;100799.38;5113384;28;20386;-59
2023/01/14 07:50:55;;;;;;;13.57;9.63;;;;;;;14.43;54.65;100800.34;5094780;28;20075;-57
2023/01/14 07:53:24;;;;;;;12.65;8.98;;;;;;;14.39;54.73;100799.69;5113024;28;20043;-58
2023/01/14 07:55:53;;;;;;;12.45;8.57;;;;;;;14.38;54.75;100810.50;5111877;28;20067;-57
2023/01/14 07:58:23;;;;;;;13.60;8.30;;;;;;;14.35;54.78;100808.03;5099710;28;20044;-58
2023/01/14 08:00:51;;;;;;;13.98;8.88;;;;;;;14.32;54.63;100811.78;5092339;28;20500;-59
2023/01/14 08:03:19;;;;;;;12.27;8.32;;;;;;;14.30;54.58;100806.53;5074225;28;20063;-60
2023/01/14 08:05:47;;;;;;;13.10;8.77;;;;;;;14.29;54.81;100812.00;5109602;28;20100;-59
2023/01/14 08:08:16;;;;;;;12.45;8.45;;;;;;;14.27;54.74;100812.09;5094661;28;20535;-59
2023/01/14 08:10:44;;;;;;;11.77;8.07;;;;;;;14.24;54.89;100806.94;5112839;28;20100;-59
2023/01/14 08:13:14;;;;;;;12.18;8.80;;;;;;;14.24;54.69;100809.63;5112880;28;20089;-59
2023/01/14 08:15:42;;;;;;;12.93;8.75;;;;;;;14.23;54.89;100804.38;5105138;28;20442;-59
2023/01/14 08:18:11;;;;;;;12.05;8.45;;;;;;;14.21;54.88;100809.84;5094240;28;20042;-59
2023/01/14 08:20:39;;;;;;;14.05;8.80;;;;;;;14.20;54.88;100810.81;5112196;28;20480;-55
2023/01/14 08:23:07;;;;;;;11.57;8.00;;;;;;;14.19;54.82;100805.53;5112206;28;20082;-60
2023/01/14 08:25:35;;;;;;;13.27;8.48;;;;;;;14.16;54.81;100806.59;5112402;28;20049;-58
2023/01/14 08:28:05;;;;;;;14.07;8.73;;;;;;;14.17;54.92;100815.50;5112465;28;20049;-59
2023/01/14 08:30:35;;;;;;;11.70;8.23;;;;;;;14.17;55.09;100815.50;5112573;28;20401;-60
2023/01/14 08:33:03;;;;;;;12.27;8.85;;;;;;;14.14;54.87;100816.56;5112682;28;20077;-59
2023/01/14 08:35:31;;;;;;;10.68;8.10;;;;;;;14.16;55.82;100817.31;5112509;28;20040;-55
2023/01/14 08:37:59;;;;;;;13.50;8.85;;;;;;;14.15;55.60;100814.75;5112264;28;20043;-59
2023/01/14 08:40:27;;;;;;;11.65;7.85;;;;;;;14.16;55.60;100819.13;5112159;28;20070;-52
2023/01/14 08:42:59;;;;;;;13.02;8.15;;;;;;;14.15;55.54;100820.09;5112164;28;20059;-58
2023/01/14 08:45:27;;;;;;;13.05;8.60;;;;;;;14.14;55.47;100832.66;5112218;28;20043;-58
2023/01/14 08:47:57;;;;;;;13.10;8.57;;;;;;;14.13;55.31;100833.63;5112294;28;20123;-56
2023/01/14 08:50:26;;;;;;;11.75;7.70;;;;;;;14.13;55.39;100832.75;5112283;28;20055;-57
2023/01/14 08:52:54;;;;;;;13.43;9.18;;;;;;;14.12;55.62;100839.94;5112125;28;20122;-56
2023/01/14 08:55:22;;;;;;;13.52;8.70;;;;;;;14.11;55.41;100837.38;5112053;28;20143;-57
2023/01/14 08:57:50;;;;;;;11.77;7.65;;;;;;;14.09;55.54;100837.47;5111991;28;20039;-57
2023/01/14 09:00:20;;;;;;;11.73;8.27;;;;;;;14.08;55.43;100838.41;5111898;28;20078;-57
2023/01/14 09:02:48;;;;;;;14.18;9.20;;;;;;;14.08;55.53;100846.47;5106025;28;20473;-57
2023/01/14 09:05:17;;;;;;;11.60;8.20;;;;;;;14.09;55.51;100856.25;5101157;28;20062;-57
2023/01/14 09:18:50;;;;;;;11.63;8.10;;;;;;;14.08;55.67;100865.25;5111561;28;20515;-55
2023/01/14 09:21:20;;;;;;;11.90;7.78;;;;;;;14.08;55.79;100859.88;5094134;28;20447;-57
2023/01/14 09:23:49;;;;;;;11.52;7.72;;;;;;;14.07;55.76;100850.09;5111872;28;20047;-59
2023/01/14 09:26:19;;;;;;;12.20;7.68;;;;;;;14.08;55.81;100846.47;5093638;28;20075;-58
2023/01/14 09:28:47;;;;;;;12.05;8.40;;;;;;;14.09;55.73;100852.69;5093511;28;20404;-55
2023/01/14 09:31:15;;;;;;;11.10;7.55;;;;;;;14.11;55.83;100854.34;5111855;28;20048;-59
2023/01/14 09:33:44;;;;;;;12.63;8.02;;;;;;;14.10;56.05;100852.63;5111760;28;20043;-57
2023/01/14 09:36:12;;;;;;;11.50;7.53;;;;;;;14.11;55.87;100843.59;5111937;28;20043;-57
2023/01/14 09:38:42;;;;;;;11.90;7.82;;;;;;;14.13;56.07;100841.66;5111802;28;20051;-56
2023/01/14 09:41:23;;;;;;;12.40;7.63;;;;;;;14.14;55.98;100848.75;5111888;28;20054;-56
2023/01/14 09:43:54;;;;;;;11.15;7.43;;;;;;;14.16;55.91;100843.28;5111783;28;20411;-57
2023/01/14 09:46:26;;;;;;;12.55;8.18;;;;;;;14.19;56.12;100846.66;5111567;28;20092;-57
2023/01/14 09:48:56;;;;;;;8.98;6.40;;;;;;;14.22;56.26;100840.22;5111615;28;20532;-57
2023/01/14 09:51:43;;;;;;;10.40;7.20;;;;;;;14.24;56.18;100822.19;5111564;28;20051;-59
2023/01/14 09:54:22;;;;;;;11.07;7.75;;;;;;;14.26;56.12;100823.78;5110931;28;20043;-58
2023/01/14 09:56:56;;;;;;;10.18;6.78;;;;;;;14.33;56.18;100830.47;5110784;28;20043;-57
2023/01/14 09:59:32;;;;;;;10.32;7.07;;;;;;;14.38;56.42;100823.94;5092489;28;20047;-59
2023/01/14 10:02:07;;;;;;;10.38;7.38;;;;;;;14.43;56.41;100819.13;5109714;28;20070;-58
2023/01/14 10:04:49;;;;;;;9.23;6.40;;;;;;;14.48;56.30;100822.41;5111555;28;20047;-59
2023/01/14 10:07:19;;;;;;;10.93;7.35;;;;;;;14.53;56.39;100818.44;5111588;28;20050;-57
2023/01/14 10:09:55;;;;;;;9.40;6.88;;;;;;;14.58;56.53;100815.44;5111675;28;20050;-59
2023/01/14 10:12:27;;;;;;;10.07;6.60;;;;;;;14.64;56.54;100808.78;5093292;28;20048;-58
2023/01/14 10:15:03;;;;;;;10.40;7.20;;;;;;;14.69;56.80;100810.22;5113857;28;20044;-59
2023/01/14 10:17:40;;;;;;;12.70;6.85;;;;;;;14.72;56.59;100803.75;5115026;28;20067;-60
2023/01/14 10:20:17;;;;;;;10.00;6.03;;;;;;;14.69;56.17;100807.53;5096681;28;20051;-58
2023/01/14 10:22:51;;;;;;;10.25;6.45;;;;;;;14.67;55.87;100804.09;5115034;28;20055;-59
2023/01/14 10:25:22;;;;;;;9.48;5.85;;;;;;;14.69;56.03;100806.66;5114950;28;20040;-57
2023/01/14 10:27:54;;;;;;;8.50;5.70;;;;;;;14.71;55.92;100810.09;5114562;28;20179;-57
2023/01/14 10:30:28;;;;;;;9.75;6.45;;;;;;;14.69;55.85;100807.53;5096431;28;20130;-59
2023/01/14 10:32:57;;;;;;;;;;;;;;;14.68;55.82;100808.50;5115013;28;20089;-59
2023/01/14 10:35:32;;;;;;;9.10;5.72;;;;;;;14.69;55.92;100812.91;5114759;28;19926;-59
2023/01/14 10:38:01;;;;;;;8.73;5.57;;;;;;;14.69;55.99;100820.09;5114569;28;20039;-59
2023/01/14 10:40:32;;;;;;;8.50;5.70;;;;;;;14.71;55.97;100812.78;5114455;28;20115;-56
2023/01/14 10:43:03;;;;;;;7.78;5.63;;;;;;;14.74;56.13;100810.75;5114470;28;20055;-57
2023/01/14 10:45:31;;;;;;;9.48;5.88;;;;;;;14.75;55.87;100801.72;5114421;28;20567;-57
2023/01/14 10:48:04;;;;;;;8.43;5.32;;;;;;;14.81;56.02;100798.63;5096096;28;20423;-57
2023/01/14 10:50:33;;;;;;;8.27;5.40;;;;;;;14.87;56.25;100800.88;5096363;28;20051;-59
2023/01/14 10:53:19;;;;;;;8.95;5.47;;;;;;;14.95;56.34;100803.00;5114403;28;20047;-58
2023/01/14 10:55:56;;;;;;;9.15;5.40;;;;;;;15.01;56.49;100807.97;5114219;28;20058;-59
2023/01/14 10:58:31;;;;;;;8.15;5.03;;;;;;;15.05;56.33;100806.78;5095941;28;20050;-59
2023/01/14 11:01:03;;;;;;;7.43;5.03;;;;;;;15.12;56.38;100801.84;5114172;28;20048;-59
2023/01/14 11:03:34;;;;;;;8.35;5.00;;;;;;;15.16;56.37;100796.16;5114244;28;20052;-58
2023/01/14 11:06:06;;;;;;;8.10;4.82;;;;;;;15.22;56.22;100788.63;5114352;28;20044;-59
2023/01/14 11:08:37;;;;;;;7.45;4.90;;;;;;;15.28;56.22;100791.75;5114085;28;20085;-59
2023/01/14 11:11:09;;;;;;;7.35;4.90;;;;;;;15.34;56.24;100790.41;5114008;28;20837;-59
2023/01/14 11:13:41;;;;;;;6.88;4.40;;;;;;;15.37;56.08;100782.16;5113946;28;20040;-59
2023/01/14 11:16:29;;;;;;;7.90;4.43;;;;;;;15.44;56.20;100789.69;5113932;28;20196;-59
2023/01/14 11:18:59;;;;;;;7.15;4.47;;;;;;;15.46;56.16;100776.97;5113758;28;20047;-59
2023/01/14 11:21:29;;;;;;;7.97;4.68;;;;;;;15.52;56.23;100775.66;5114145;28;20481;-58
2023/01/14 11:23:59;;;;;;;6.85;4.00;;;;;;;15.56;56.21;100765.56;5113904;28;20039;-59
2023/01/14 11:26:30;;;;;;;7.40;4.40;;;;;;;15.60;56.26;100762.56;5113316;28;20075;-59
2023/01/14 11:29:16;;;;;;;6.45;4.13;;;;;;;15.65;56.16;100754.16;5113621;28;20126;-59
2023/01/14 11:31:47;;;;;;;7.45;4.60;;;;;;;15.69;56.22;100761.03;5113735;28;20047;-59
2023/01/14 11:34:26;;;;;;;5.43;3.80;;;;;;;15.74;56.14;100764.25;5113644;28;20048;-59
2023/01/14 11:37:04;;;;;;;6.45;4.30;;;;;;;15.77;56.24;100764.03;5113416;28;20480;-59
2023/01/14 11:39:34;;;;;;;6.10;3.92;;;;;;;15.84;56.18;100759.91;5095187;28;20055;-59
2023/01/14 11:42:22;;;;;;;6.50;4.00;;;;;;;15.90;56.23;100763.97;5095025;28;20058;-60
2023/01/14 11:44:57;;;;;;;5.68;3.85;;;;;;;15.95;55.90;100767.19;5113513;28;20186;-58
2023/01/14 11:47:26;;;;;;;5.88;3.80;;;;;;;16.00;55.88;100768.53;5113296;28;20438;-59
2023/01/14 11:50:16;;;;;;;7.07;4.07;;;;;;;16.05;55.94;100765.53;5113464;28;20040;-59
2023/01/14 11:53:02;;;;;;;5.47;3.47;;;;;;;16.11;55.86;100761.50;5113272;28;20116;-59
2023/01/14 11:55:33;;;;;;;6.13;3.85;;;;;;;16.16;55.73;100759.31;5113138;28;20122;-59
2023/01/14 11:58:15;;;;;;;5.65;3.47;;;;;;;16.20;55.82;100763.50;5113028;28;20050;-59
2023/01/14 12:00:47;;;;;;;4.80;3.05;;;;;;;16.26;55.90;100760.34;5113095;28;20096;-59
2023/01/14 12:03:24;;;;;;;5.18;3.20;;;;;;;16.28;55.77;100753.88;5113036;28;20040;-57